In Rescue
 
Open Full Screen Window  High Contrast Mode
Wind Gusting 00 knots
09
April 02, 2020 11:52 PM CDT
Present Weather: Light Rain
Weather Information
Wind Direction
  260 °
Wind Speed
  09 kt (10 mph)
Wind Gust
  00 kt (0 mph)
Altimeter
29.94 in
Visibility
10 SM
Temperature
09° C
48° F
Dewpoint
07° C
45° F
Humidity
87%
1hr Rain Fall
00.00 in.
24hr Rain Fall
00.00 in.
Sky Condition
Overcast @ 7,500 ft
Scattered @ 5,500 ft
Scattered @ 5,000 ft
VFR

METAR KSYN 030452Z AUTO 26009KT 10SM -RA SCT050 SCT055 OVC075 09/07 A2994 RMK AO2 T00900067

FAA Disclaimer: The data displayed is for advisory purposes only and is not to be used for flight planning or operations.